createdAt,value
2022-11-29T00:01:42.083Z,45.90
2022-11-29T00:04:10.604Z,43.90
2022-11-29T00:06:40.587Z,43.47
2022-11-29T00:09:12.269Z,39.03
2022-11-29T00:11:59.322Z,45.90
2022-11-29T00:14:28.736Z,51.93
2022-11-29T00:17:01.916Z,44.83
2022-11-29T00:19:31.042Z,41.90
2022-11-29T00:22:01.017Z,42.37
2022-11-29T00:24:31.522Z,40.83
2022-11-29T00:27:00.806Z,43.37
2022-11-29T00:29:30.438Z,43.43
2022-11-29T00:31:58.615Z,44.40
2022-11-29T00:34:26.883Z,45.90
2022-11-29T00:36:55.143Z,42.77
2022-11-29T00:39:25.110Z,44.83
2022-11-29T00:41:53.437Z,43.80
2022-11-29T00:44:21.579Z,48.23
2022-11-29T00:46:50.064Z,42.43
2022-11-29T00:49:18.670Z,46.23
2022-11-29T00:51:46.860Z,43.00
2022-11-29T00:54:15.371Z,41.50
2022-11-29T00:56:45.308Z,43.40
2022-11-29T00:59:13.540Z,43.90
2022-11-29T01:01:41.867Z,40.40
2022-11-29T01:04:10.211Z,42.10
2022-11-29T01:06:38.358Z,43.17
2022-11-29T01:09:06.519Z,38.90
2022-11-29T01:11:34.824Z,42.77
2022-11-29T01:14:04.759Z,40.00
2022-11-29T01:16:33.766Z,39.50
2022-11-29T01:19:02.572Z,45.30
2022-11-29T01:21:31.349Z,44.23
2022-11-29T01:24:01.501Z,39.13
2022-11-29T01:26:31.066Z,41.83
2022-11-29T01:28:59.805Z,39.87
2022-11-29T01:31:32.218Z,43.67
2022-11-29T01:34:03.004Z,42.33
2022-11-29T01:36:31.541Z,57.70
2022-11-29T01:39:00.632Z,47.53
2022-11-29T01:41:31.171Z,47.17
2022-11-29T01:44:02.742Z,47.03
2022-11-29T01:46:34.555Z,47.40
2022-11-29T01:49:09.262Z,49.33
2022-11-29T01:51:43.003Z,41.97
2022-11-29T01:54:13.220Z,44.50
2022-11-29T01:56:44.510Z,42.87
2022-11-29T01:59:16.123Z,45.63
2022-11-29T02:01:45.757Z,47.63
2022-11-29T02:04:14.767Z,46.33
2022-11-29T02:06:44.095Z,55.67
2022-11-29T02:09:20.463Z,45.40
2022-11-29T02:12:05.812Z,41.87
2022-11-29T02:14:53.819Z,47.17
2022-11-29T02:17:34.097Z,45.57
2022-11-29T02:20:43.524Z,49.00
2022-11-29T02:23:33.607Z,41.93
2022-11-29T02:26:19.395Z,47.30
2022-11-29T02:29:16.937Z,49.73
2022-11-29T02:32:08.210Z,44.10
2022-11-29T02:34:54.296Z,45.00
2022-11-29T02:37:50.500Z,40.07
2022-11-29T02:40:46.281Z,44.23
2022-11-29T02:43:52.575Z,46.60
2022-11-29T02:46:41.412Z,46.97
2022-11-29T02:49:20.432Z,40.00
2022-11-29T02:51:57.804Z,44.80
2022-11-29T02:54:30.973Z,41.33
2022-11-29T02:57:05.118Z,45.90
2022-11-29T02:59:44.155Z,45.03
2022-11-29T03:02:23.362Z,40.13
2022-11-29T03:04:58.338Z,42.07
2022-11-29T03:07:38.343Z,51.07
2022-11-29T03:10:13.162Z,41.27
2022-11-29T03:12:43.935Z,41.60
2022-11-29T03:15:26.395Z,40.43
2022-11-29T03:18:14.907Z,42.43
2022-11-29T03:20:56.539Z,40.43
2022-11-29T03:23:32.520Z,42.67
2022-11-29T03:26:07.410Z,48.50
2022-11-29T03:28:42.290Z,41.80
2022-11-29T03:31:15.225Z,42.27
2022-11-29T03:33:52.539Z,41.40
2022-11-29T03:36:30.555Z,45.50
2022-11-29T03:39:06.176Z,42.57
2022-11-29T03:41:42.556Z,38.40
2022-11-29T03:44:16.785Z,43.30
2022-11-29T03:46:51.693Z,38.90
2022-11-29T03:49:26.671Z,40.13
2022-11-29T03:52:03.886Z,45.57
2022-11-29T03:54:43.475Z,40.47
2022-11-29T03:57:14.931Z,44.80
2022-11-29T03:59:57.227Z,49.53
2022-11-29T04:03:02.993Z,50.67
2022-11-29T04:05:48.512Z,50.83
2022-11-29T04:08:43.895Z,43.70
2022-11-29T04:11:55.628Z,41.77
2022-11-29T04:14:34.694Z,47.90
2022-11-29T04:17:48.829Z,47.10
2022-11-29T04:20:48.226Z,44.80
2022-11-29T04:23:56.816Z,46.37
2022-11-29T04:26:53.609Z,44.83
2022-11-29T04:29:45.026Z,45.33
2022-11-29T04:32:34.154Z,48.97
2022-11-29T04:35:45.180Z,50.63
2022-11-29T04:38:40.890Z,47.40
2022-11-29T04:41:41.906Z,45.43
2022-11-29T04:44:28.359Z,45.17
2022-11-29T04:47:17.167Z,51.87
2022-11-29T04:50:04.459Z,45.20
2022-11-29T04:52:43.875Z,42.13
2022-11-29T04:55:30.493Z,41.77
2022-11-29T04:58:06.496Z,45.93
2022-11-29T05:00:42.992Z,45.47
2022-11-29T05:03:17.558Z,45.77
2022-11-29T05:05:52.584Z,56.13
2022-11-29T05:08:28.460Z,42.77
2022-11-29T05:11:04.780Z,46.13
2022-11-29T05:13:46.157Z,44.37
2022-11-29T05:16:34.586Z,47.10
2022-11-29T05:19:25.571Z,49.23
2022-11-29T05:22:03.267Z,45.37
2022-11-29T05:24:47.301Z,46.33
2022-11-29T05:27:24.133Z,49.80
2022-11-29T05:29:58.328Z,46.30
2022-11-29T05:32:36.729Z,46.20
2022-11-29T05:35:33.904Z,47.20
2022-11-29T05:38:12.359Z,46.10
2022-11-29T05:40:47.426Z,51.47
2022-11-29T05:43:31.400Z,43.97
2022-11-29T05:46:06.026Z,43.20
2022-11-29T05:48:45.250Z,44.50
2022-11-29T05:51:22.342Z,51.53
2022-11-29T05:53:59.363Z,54.53
2022-11-29T05:56:43.218Z,49.40
2022-11-29T05:59:16.315Z,60.50
2022-11-29T06:01:53.334Z,46.03
2022-11-29T06:04:28.775Z,49.47
2022-11-29T06:07:04.831Z,52.93
2022-11-29T06:09:38.165Z,55.40
2022-11-29T06:12:18.171Z,49.87
2022-11-29T06:15:07.203Z,47.27
2022-11-29T06:17:48.743Z,49.87
2022-11-29T06:20:32.310Z,43.90
2022-11-29T06:23:16.222Z,50.17
2022-11-29T06:26:03.519Z,47.93
2022-11-29T06:28:50.605Z,47.30
2022-11-29T06:31:24.620Z,52.87
2022-11-29T06:34:02.625Z,49.83
2022-11-29T06:36:41.080Z,43.87
2022-11-29T06:39:10.807Z,50.53
2022-11-29T06:41:39.087Z,47.23
2022-11-29T06:44:08.219Z,52.33
2022-11-29T06:46:46.504Z,47.97
2022-11-29T06:49:23.287Z,45.77
2022-11-29T06:52:05.028Z,44.40
2022-11-29T06:54:49.524Z,49.07
2022-11-29T06:57:25.722Z,54.67
2022-11-29T07:00:04.474Z,46.60
2022-11-29T07:02:51.175Z,53.90
2022-11-29T07:05:25.183Z,52.27
2022-11-29T07:07:57.570Z,48.10
2022-11-29T07:10:27.867Z,45.00
2022-11-29T07:12:56.574Z,50.90
2022-11-29T07:15:25.476Z,48.73
2022-11-29T07:18:10.044Z,52.13
2022-11-29T07:20:50.236Z,49.73
2022-11-29T07:23:33.661Z,49.57
2022-11-29T07:26:10.544Z,46.27
2022-11-29T07:28:48.370Z,44.20
2022-11-29T07:31:25.150Z,46.47
2022-11-29T07:33:59.780Z,46.70
2022-11-29T07:36:35.104Z,48.13
2022-11-29T07:39:20.019Z,45.60
2022-11-29T07:41:57.771Z,42.77
2022-11-29T07:44:35.126Z,50.77
2022-11-29T07:47:03.397Z,46.93
2022-11-29T07:49:31.746Z,49.23
2022-11-29T07:51:59.922Z,61.03
2022-11-29T07:54:29.651Z,52.80
2022-11-29T07:56:57.797Z,49.30
2022-11-29T07:59:25.920Z,48.40
2022-11-29T08:01:54.181Z,49.53
2022-11-29T08:04:22.375Z,47.50
2022-11-29T08:06:50.503Z,51.10
2022-11-29T08:09:19.156Z,50.67
2022-11-29T08:11:48.865Z,53.27
2022-11-29T08:14:16.996Z,49.70
2022-11-29T08:16:45.228Z,52.90
2022-11-29T08:19:13.416Z,55.90
2022-11-29T08:21:44.204Z,50.63
2022-11-29T08:24:12.726Z,47.10
2022-11-29T08:26:41.013Z,48.57
2022-11-29T08:29:10.523Z,49.57
2022-11-29T08:31:38.945Z,50.60
2022-11-29T08:34:07.930Z,50.57
2022-11-29T08:36:36.060Z,43.60
2022-11-29T08:39:09.347Z,50.70
2022-11-29T08:41:37.804Z,55.90
2022-11-29T08:44:06.539Z,45.53
2022-11-29T08:46:54.411Z,48.33
2022-11-29T08:49:22.612Z,52.43
2022-11-29T08:51:52.311Z,53.97
2022-11-29T08:54:19.471Z,54.33
2022-11-29T08:57:31.072Z,49.43
2022-11-29T08:59:35.797Z,53.07
2022-11-29T09:02:05.326Z,49.90
2022-11-29T09:04:33.458Z,51.43
2022-11-29T09:07:01.625Z,48.67
2022-11-29T09:09:29.741Z,52.07
2022-11-29T09:11:57.831Z,51.17
2022-11-29T09:14:26.125Z,52.80
2022-11-29T09:16:54.311Z,51.10
2022-11-29T09:19:23.822Z,51.77
2022-11-29T09:21:51.959Z,58.10
2022-11-29T09:24:20.612Z,52.43
2022-11-29T09:26:48.819Z,49.23
2022-11-29T09:29:18.377Z,56.43
2022-11-29T09:31:46.703Z,51.70
2022-11-29T09:34:15.101Z,48.10
2022-11-29T09:36:44.991Z,48.77
2022-11-29T09:39:13.322Z,48.03
2022-11-29T09:42:04.996Z,50.57
2022-11-29T09:44:41.856Z,47.70
2022-11-29T09:47:26.765Z,52.63
2022-11-29T09:50:02.047Z,56.23
2022-11-29T09:52:48.379Z,51.20
2022-11-29T09:55:38.755Z,49.90
2022-11-29T09:58:10.859Z,49.50
2022-11-29T10:00:45.502Z,51.77
2022-11-29T10:03:21.397Z,49.70
2022-11-29T10:05:54.666Z,59.00
2022-11-29T10:08:29.610Z,48.40
2022-11-29T10:11:07.713Z,50.43
2022-11-29T10:13:38.128Z,50.27
2022-11-29T10:16:15.109Z,50.30
2022-11-29T10:18:49.664Z,45.90
2022-11-29T10:21:21.535Z,51.43
2022-11-29T10:23:55.117Z,44.93
2022-11-29T10:26:25.885Z,46.40
2022-11-29T10:28:57.953Z,51.07
2022-11-29T10:31:28.678Z,55.63
2022-11-29T10:33:58.546Z,48.97
2022-11-29T10:36:30.835Z,43.50
2022-11-29T10:39:04.113Z,48.03
2022-11-29T10:41:33.011Z,46.30
2022-11-29T10:44:02.215Z,55.10
2022-11-29T10:46:33.107Z,48.93
2022-11-29T10:49:05.748Z,51.00
2022-11-29T10:51:35.068Z,47.57
2022-11-29T10:54:21.341Z,62.07
2022-11-29T10:56:49.663Z,53.00
2022-11-29T10:59:22.839Z,44.10
2022-11-29T11:01:51.787Z,51.60
2022-11-29T11:04:29.508Z,53.73
2022-11-29T11:07:01.263Z,50.90
2022-11-29T11:09:36.437Z,46.70
2022-11-29T11:12:08.557Z,46.23
2022-11-29T11:14:38.797Z,48.87
2022-11-29T11:17:22.413Z,48.70
2022-11-29T11:19:58.863Z,48.70
2022-11-29T11:22:28.597Z,50.47
2022-11-29T11:25:06.887Z,48.77
2022-11-29T11:27:39.772Z,44.37
2022-11-29T11:30:19.390Z,47.60
2022-11-29T11:33:08.730Z,45.50
2022-11-29T11:35:37.308Z,49.60
2022-11-29T11:38:05.489Z,46.93
2022-11-29T11:40:35.088Z,46.20
2022-11-29T11:43:03.812Z,47.40
2022-11-29T11:45:35.530Z,47.60
2022-11-29T11:48:12.530Z,47.67
2022-11-29T11:50:45.772Z,46.83
2022-11-29T11:53:22.181Z,41.67
2022-11-29T11:56:00.558Z,46.17
2022-11-29T11:58:30.314Z,46.83
2022-11-29T12:01:04.715Z,44.20
2022-11-29T12:03:44.887Z,51.10
2022-11-29T12:06:26.241Z,43.40
2022-11-29T12:08:59.529Z,46.67
2022-11-29T12:11:35.795Z,47.13
2022-11-29T12:14:07.115Z,41.10
2022-11-29T12:16:40.245Z,42.07
2022-11-29T12:19:16.324Z,48.20
2022-11-29T12:21:48.407Z,48.63
2022-11-29T12:24:22.853Z,42.10
2022-11-29T12:26:57.900Z,51.53
2022-11-29T12:29:30.724Z,49.20
2022-11-29T12:32:12.670Z,44.93
2022-11-29T12:34:54.480Z,41.10
2022-11-29T12:37:31.043Z,43.97
2022-11-29T12:40:07.223Z,44.80
2022-11-29T12:42:47.271Z,49.20
2022-11-29T12:45:40.159Z,42.27
2022-11-29T12:48:21.456Z,47.43
2022-11-29T12:51:01.906Z,49.87
2022-11-29T12:53:45.273Z,46.17
2022-11-29T12:56:16.983Z,48.40
2022-11-29T12:59:13.470Z,43.03
2022-11-29T13:01:58.712Z,43.20
2022-11-29T13:04:36.261Z,48.97
2022-11-29T13:07:13.310Z,44.37
2022-11-29T13:09:57.008Z,45.10
2022-11-29T13:12:33.907Z,50.93
2022-11-29T13:15:07.951Z,44.83
2022-11-29T13:17:43.539Z,46.80
2022-11-29T13:20:30.699Z,45.43
2022-11-29T13:23:06.034Z,48.30
2022-11-29T13:25:38.844Z,48.70
2022-11-29T13:28:12.018Z,42.57
2022-11-29T13:30:41.898Z,44.33
2022-11-29T13:33:20.462Z,48.57
2022-11-29T13:35:57.471Z,49.33
2022-11-29T13:38:32.392Z,45.73
2022-11-29T13:41:10.923Z,42.33
2022-11-29T13:43:44.249Z,53.30
2022-11-29T13:46:23.855Z,42.43
2022-11-29T13:48:54.113Z,49.77
2022-11-29T13:51:27.075Z,43.20
2022-11-29T13:53:57.138Z,46.97
2022-11-29T13:56:29.672Z,45.67
2022-11-29T13:58:58.975Z,49.27
2022-11-29T14:01:29.937Z,45.33
2022-11-29T14:04:31.422Z,50.17
2022-11-29T14:07:05.665Z,54.67
2022-11-29T14:09:44.343Z,50.10
2022-11-29T14:12:39.764Z,50.07
2022-11-29T14:15:23.106Z,44.93
2022-11-29T14:17:55.443Z,51.10
2022-11-29T14:20:57.787Z,51.17
2022-11-29T14:23:37.957Z,51.90
2022-11-29T14:26:28.808Z,45.70
2022-11-29T14:28:58.698Z,53.03
2022-11-29T14:31:53.013Z,48.50
2022-11-29T14:34:37.524Z,51.73
2022-11-29T14:37:18.327Z,51.57
2022-11-29T14:39:50.316Z,55.63
2022-11-29T14:42:20.395Z,47.03
2022-11-29T14:44:52.111Z,47.83
2022-11-29T14:47:29.920Z,55.37
2022-11-29T14:50:03.778Z,51.80
2022-11-29T14:52:35.961Z,49.73
2022-11-29T14:55:09.648Z,52.40
2022-11-29T14:58:14.786Z,55.27
2022-11-29T15:01:02.701Z,52.23
2022-11-29T15:03:37.559Z,54.50
2022-11-29T15:06:14.568Z,54.63
2022-11-29T15:08:52.503Z,47.73
2022-11-29T15:11:33.622Z,53.77
2022-11-29T15:14:05.725Z,57.50
2022-11-29T15:16:51.693Z,53.83
2022-11-29T15:19:53.711Z,60.77
2022-11-29T15:22:27.601Z,54.60
2022-11-29T15:24:58.895Z,55.00
2022-11-29T15:27:27.815Z,60.50
2022-11-29T15:29:56.014Z,55.13
2022-11-29T15:32:26.303Z,59.27
2022-11-29T15:34:56.143Z,51.00
2022-11-29T15:37:40.771Z,52.83
2022-11-29T15:40:14.073Z,58.23
2022-11-29T15:42:44.789Z,55.50
2022-11-29T15:45:27.698Z,55.80
2022-11-29T15:47:56.133Z,56.77
2022-11-29T15:50:26.693Z,54.27
2022-11-29T15:53:01.316Z,53.17
2022-11-29T15:55:30.510Z,56.17
2022-11-29T15:58:05.515Z,54.50
2022-11-29T16:00:37.308Z,52.57
2022-11-29T16:03:08.575Z,58.50
2022-11-29T16:05:38.704Z,59.40
2022-11-29T16:08:15.049Z,61.30
2022-11-29T16:10:47.447Z,55.03
2022-11-29T16:13:32.570Z,55.90
2022-11-29T16:16:07.579Z,59.37
2022-11-29T16:18:37.180Z,58.00
2022-11-29T16:21:07.515Z,57.53
2022-11-29T16:23:38.348Z,54.27
2022-11-29T16:26:14.767Z,56.03
2022-11-29T16:28:45.402Z,56.23
2022-11-29T16:31:18.155Z,57.77
2022-11-29T16:33:48.962Z,53.93
2022-11-29T16:36:20.752Z,64.27
2022-11-29T16:38:52.912Z,55.10
2022-11-29T16:41:31.240Z,58.90
2022-11-29T16:44:00.177Z,59.23
2022-11-29T16:46:33.872Z,60.77
2022-11-29T16:49:04.812Z,60.83
2022-11-29T16:51:39.791Z,57.37
2022-11-29T16:54:24.628Z,53.40
2022-11-29T16:56:54.245Z,55.63
2022-11-29T16:59:26.910Z,54.63
2022-11-29T17:01:56.628Z,64.43
2022-11-29T17:04:25.482Z,63.07
2022-11-29T17:06:54.968Z,58.50
2022-11-29T17:09:26.689Z,60.13
2022-11-29T17:11:55.497Z,61.07
2022-11-29T17:14:23.751Z,51.73
2022-11-29T17:16:52.331Z,60.57
2022-11-29T17:19:25.467Z,61.13
2022-11-29T17:21:53.665Z,64.07
2022-11-29T17:24:23.405Z,54.20
2022-11-29T17:26:52.948Z,59.90
2022-11-29T17:29:21.457Z,63.17
2022-11-29T17:31:50.543Z,64.03
2022-11-29T17:34:18.887Z,74.27
2022-11-29T17:36:47.192Z,56.23
2022-11-29T17:39:19.957Z,70.67
2022-11-29T17:41:48.411Z,65.43
2022-11-29T17:44:18.147Z,63.10
2022-11-29T17:46:46.373Z,69.40
2022-11-29T17:49:14.482Z,58.33
2022-11-29T17:51:52.781Z,63.87
2022-11-29T17:54:22.168Z,62.33
2022-11-29T17:56:50.586Z,61.00
2022-11-29T17:59:20.451Z,64.27
2022-11-29T18:01:48.845Z,65.60
2022-11-29T18:04:17.052Z,64.80
2022-11-29T18:06:49.673Z,54.00
2022-11-29T18:09:19.801Z,67.27
2022-11-29T18:11:50.297Z,64.50
2022-11-29T18:14:22.883Z,66.07
2022-11-29T18:16:51.624Z,64.90
2022-11-29T18:19:22.208Z,61.70
2022-11-29T18:21:50.978Z,72.50
2022-11-29T18:24:19.774Z,61.13
2022-11-29T18:26:48.174Z,59.17
2022-11-29T18:29:16.376Z,60.23
2022-11-29T18:31:46.969Z,60.97
2022-11-29T18:34:15.851Z,66.30
2022-11-29T18:36:45.952Z,65.30
2022-11-29T18:39:16.132Z,67.43
2022-11-29T18:41:48.065Z,66.13
2022-11-29T18:44:18.908Z,74.13
2022-11-29T18:46:48.906Z,68.73
2022-11-29T18:49:18.413Z,67.20
2022-11-29T18:51:48.602Z,68.53
2022-11-29T18:54:18.372Z,68.53
2022-11-29T18:56:46.746Z,69.47
2022-11-29T18:59:17.634Z,67.73
2022-11-29T19:01:49.084Z,66.10
2022-11-29T19:04:19.235Z,68.80
2022-11-29T19:06:48.460Z,66.57
2022-11-29T19:09:19.236Z,62.40
2022-11-29T19:11:48.664Z,70.80
2022-11-29T19:14:16.938Z,67.23
2022-11-29T19:16:48.895Z,74.00
2022-11-29T19:19:18.620Z,67.13
2022-11-29T19:21:47.202Z,75.87
2022-11-29T19:24:17.832Z,68.63
2022-11-29T19:26:48.960Z,75.30
2022-11-29T19:29:17.567Z,74.37
2022-11-29T19:31:46.037Z,73.00
2022-11-29T19:34:15.546Z,81.83
2022-11-29T19:36:45.515Z,73.30
2022-11-29T19:39:15.952Z,79.03
2022-11-29T19:41:45.543Z,72.87
2022-11-29T19:44:14.253Z,85.30
2022-11-29T19:46:44.015Z,83.10
2022-11-29T19:49:12.853Z,78.60
2022-11-29T19:51:42.657Z,76.70
2022-11-29T19:54:11.927Z,79.10
2022-11-29T19:56:40.697Z,82.57
2022-11-29T19:59:09.347Z,71.83
2022-11-29T20:01:41.393Z,78.40
2022-11-29T20:04:12.244Z,77.50
2022-11-29T20:06:44.302Z,76.67
2022-11-29T20:09:14.433Z,74.13
2022-11-29T20:11:42.688Z,77.67
2022-11-29T20:14:12.192Z,71.53
2022-11-29T20:16:40.348Z,76.10
2022-11-29T20:19:11.672Z,80.87
2022-11-29T20:21:47.716Z,68.83
2022-11-29T20:24:17.349Z,75.90
2022-11-29T20:26:47.958Z,75.70
2022-11-29T20:29:16.480Z,74.83
2022-11-29T20:31:50.127Z,77.87
2022-11-29T20:34:20.013Z,82.93
2022-11-29T20:37:09.263Z,81.47
2022-11-29T20:39:43.977Z,68.80
2022-11-29T20:42:47.310Z,76.07
2022-11-29T20:45:17.103Z,76.13
2022-11-29T20:47:53.946Z,79.67
2022-11-29T20:50:24.286Z,77.73
2022-11-29T20:53:13.080Z,77.70
2022-11-29T20:55:46.436Z,80.03
2022-11-29T20:58:16.334Z,79.03
2022-11-29T21:00:44.677Z,72.43
2022-11-29T21:03:14.513Z,75.77
2022-11-29T21:05:43.317Z,79.17
2022-11-29T21:08:13.938Z,80.20
2022-11-29T21:10:42.499Z,81.90
2022-11-29T21:13:12.604Z,83.07
2022-11-29T21:15:41.614Z,83.70
2022-11-29T21:18:20.201Z,80.03
2022-11-29T21:20:56.616Z,77.97
2022-11-29T21:23:39.000Z,82.80
2022-11-29T21:26:14.569Z,79.70
2022-11-29T21:28:50.147Z,77.23
2022-11-29T21:31:19.097Z,86.83
2022-11-29T21:33:47.919Z,74.77
2022-11-29T21:36:16.288Z,79.30
2022-11-29T21:38:50.889Z,80.63
2022-11-29T21:41:22.352Z,74.87
2022-11-29T21:44:05.910Z,82.47
2022-11-29T21:46:35.561Z,71.17
2022-11-29T21:49:03.754Z,90.20
2022-11-29T21:51:31.887Z,74.13
2022-11-29T21:54:02.128Z,78.03
2022-11-29T21:56:30.275Z,80.60
2022-11-29T21:58:58.525Z,85.73
2022-11-29T22:01:30.020Z,78.37
2022-11-29T22:03:58.698Z,82.97
2022-11-29T22:06:28.252Z,78.30
2022-11-29T22:08:56.384Z,63.57
2022-11-29T22:11:31.873Z,69.90
2022-11-29T22:14:18.126Z,75.80
2022-11-29T22:16:48.964Z,77.17
2022-11-29T22:19:19.059Z,79.80
2022-11-29T22:21:49.524Z,74.13
2022-11-29T22:24:19.530Z,67.73
2022-11-29T22:26:49.621Z,67.87
2022-11-29T22:29:18.183Z,73.00
2022-11-29T22:31:48.394Z,74.67
2022-11-29T22:34:16.879Z,68.03
2022-11-29T22:36:45.045Z,69.37
2022-11-29T22:39:13.258Z,72.47
2022-11-29T22:41:42.279Z,72.63
2022-11-29T22:44:11.752Z,77.37
2022-11-29T22:46:41.108Z,71.23
2022-11-29T22:49:09.689Z,72.37
2022-11-29T22:51:39.253Z,65.97
2022-11-29T22:54:08.916Z,76.63
2022-11-29T22:56:39.283Z,78.03
2022-11-29T22:59:07.678Z,77.23
2022-11-29T23:01:39.110Z,73.37
2022-11-29T23:04:11.872Z,71.63
2022-11-29T23:06:42.855Z,71.03
2022-11-29T23:09:15.761Z,77.60
2022-11-29T23:11:45.234Z,63.33
2022-11-29T23:14:13.981Z,74.43
2022-11-29T23:16:43.551Z,77.47
2022-11-29T23:19:11.803Z,70.90
2022-11-29T23:21:41.490Z,75.07
2022-11-29T23:24:10.154Z,79.10
2022-11-29T23:26:40.263Z,74.77
2022-11-29T23:29:10.161Z,72.23
2022-11-29T23:31:38.539Z,77.67
2022-11-29T23:34:08.281Z,75.73
2022-11-29T23:36:36.554Z,70.60
2022-11-29T23:39:06.505Z,76.73
2022-11-29T23:41:35.230Z,69.77
2022-11-29T23:44:04.490Z,82.73
2022-11-29T23:46:33.436Z,73.67
2022-11-29T23:49:01.608Z,73.03
2022-11-29T23:51:31.102Z,72.67
2022-11-29T23:53:59.267Z,75.97
2022-11-29T23:56:30.735Z,73.80
2022-11-29T23:58:58.857Z,68.60
